Chornomors'Ke, Ukraine
Current Conditions -  °F | °C
As of 12:30 PM on Wednesday 22 Oct 2014 (Local Time) from URFF Reporting Station
Clear Clear  
Wind Chill: 66°   Ceiling: Unl
Heat Index: 66°   Visibility: 6mi
Dew Point: 54°   Wind: 7mph
Humidity: 64%   Direction: 330°NNW
Pressure: 29.77"   Gusts: NA
Location:  45.52°N, 32.7°E
Report Text: URFF 220930Z 33003MPS 290V360 CAVOK 19/12 Q1008 19010065 NOSIG
Loading
Personal Weather Stations






























Interactive Weather Map
Tropical Storm Tracking
New forecast layout! Learn more

10-Day Weather Forecast

Advertisements
Track Severe Weather on mobile